sensor_id;sensor_type;location;lat;lon;timestamp;temperature;humidity
22526;DHT22;11429;50.842;4.386;2022-07-23T00:02:06;19.00;99.90
22526;DHT22;11429;50.842;4.386;2022-07-23T00:04:32;18.90;99.90
22526;DHT22;11429;50.842;4.386;2022-07-23T00:06:58;18.90;99.90
22526;DHT22;11429;50.842;4.386;2022-07-23T00:09:24;19.10;99.90
22526;DHT22;11429;50.842;4.386;2022-07-23T00:11:49;19.30;99.90
22526;DHT22;11429;50.842;4.386;2022-07-23T00:14:15;19.50;99.90
22526;DHT22;11429;50.842;4.386;2022-07-23T00:16:41;19.40;99.90
22526;DHT22;11429;50.842;4.386;2022-07-23T00:19:06;19.30;99.90
22526;DHT22;11429;50.842;4.386;2022-07-23T00:21:32;19.10;99.90
22526;DHT22;11429;50.842;4.386;2022-07-23T00:23:58;18.80;99.90
22526;DHT22;11429;50.842;4.386;2022-07-23T00:26:23;19.00;99.90
22526;DHT22;11429;50.842;4.386;2022-07-23T00:28:49;19.30;99.90
22526;DHT22;11429;50.842;4.386;2022-07-23T00:31:15;19.20;99.90
22526;DHT22;11429;50.842;4.386;2022-07-23T00:33:40;19.30;99.90
22526;DHT22;11429;50.842;4.386;2022-07-23T00:36:06;19.20;99.90
22526;DHT22;11429;50.842;4.386;2022-07-23T00:38:32;19.10;99.90
22526;DHT22;11429;50.842;4.386;2022-07-23T00:40:58;18.90;99.90
22526;DHT22;11429;50.842;4.386;2022-07-23T00:43:24;18.70;99.90
22526;DHT22;11429;50.842;4.386;2022-07-23T00:45:50;18.70;99.90
22526;DHT22;11429;50.842;4.386;2022-07-23T00:48:16;18.90;99.90
22526;DHT22;11429;50.842;4.386;2022-07-23T00:50:43;19.10;99.90
22526;DHT22;11429;50.842;4.386;2022-07-23T00:53:08;19.10;99.90
22526;DHT22;11429;50.842;4.386;2022-07-23T00:55:34;19.10;99.90
22526;DHT22;11429;50.842;4.386;2022-07-23T00:58:01;19.10;99.90
22526;DHT22;11429;50.842;4.386;2022-07-23T01:00:27;19.10;99.90
22526;DHT22;11429;50.842;4.386;2022-07-23T01:02:52;19.00;99.90
22526;DHT22;11429;50.842;4.386;2022-07-23T01:05:18;18.70;99.90
22526;DHT22;11429;50.842;4.386;2022-07-23T01:07:51;18.60;99.90
22526;DHT22;11429;50.842;4.386;2022-07-23T01:10:17;18.30;99.90
22526;DHT22;11429;50.842;4.386;2022-07-23T01:13:10;18.40;99.90
22526;DHT22;11429;50.842;4.386;2022-07-23T01:15:37;18.60;99.90
22526;DHT22;11429;50.842;4.386;2022-07-23T01:18:04;18.70;99.90
22526;DHT22;11429;50.842;4.386;2022-07-23T01:20:31;18.50;99.90
22526;DHT22;11429;50.842;4.386;2022-07-23T01:22:58;18.50;99.90
22526;DHT22;11429;50.842;4.386;2022-07-23T01:25:24;18.50;99.90
22526;DHT22;11429;50.842;4.386;2022-07-23T01:27:52;18.20;99.90
22526;DHT22;11429;50.842;4.386;2022-07-23T01:30:18;18.00;99.90
22526;DHT22;11429;50.842;4.386;2022-07-23T01:32:44;18.30;99.90
22526;DHT22;11429;50.842;4.386;2022-07-23T01:35:10;18.40;99.90
22526;DHT22;11429;50.842;4.386;2022-07-23T01:37:36;18.30;99.90
22526;DHT22;11429;50.842;4.386;2022-07-23T01:40:04;18.30;99.90
22526;DHT22;11429;50.842;4.386;2022-07-23T01:42:30;18.30;99.90
22526;DHT22;11429;50.842;4.386;2022-07-23T01:44:56;18.30;99.90
22526;DHT22;11429;50.842;4.386;2022-07-23T01:47:21;18.50;99.90
22526;DHT22;11429;50.842;4.386;2022-07-23T01:49:47;18.40;99.90
22526;DHT22;11429;50.842;4.386;2022-07-23T01:52:13;18.50;99.90
22526;DHT22;11429;50.842;4.386;2022-07-23T01:54:39;18.40;99.90
22526;DHT22;11429;50.842;4.386;2022-07-23T01:57:06;18.40;99.90
22526;DHT22;11429;50.842;4.386;2022-07-23T01:59:32;18.40;99.90
22526;DHT22;11429;50.842;4.386;2022-07-23T02:01:58;18.40;99.90
22526;DHT22;11429;50.842;4.386;2022-07-23T02:04:24;18.50;99.90
22526;DHT22;11429;50.842;4.386;2022-07-23T02:06:51;18.50;99.90
22526;DHT22;11429;50.842;4.386;2022-07-23T02:09:17;18.50;99.90
22526;DHT22;11429;50.842;4.386;2022-07-23T02:11:43;18.40;99.90
22526;DHT22;11429;50.842;4.386;2022-07-23T02:14:08;18.60;99.90
22526;DHT22;11429;50.842;4.386;2022-07-23T02:16:34;18.60;99.90
22526;DHT22;11429;50.842;4.386;2022-07-23T02:19:00;18.30;99.90
22526;DHT22;11429;50.842;4.386;2022-07-23T02:21:25;18.20;99.90
22526;DHT22;11429;50.842;4.386;2022-07-23T02:23:51;18.10;99.90
22526;DHT22;11429;50.842;4.386;2022-07-23T02:26:17;18.20;99.90
22526;DHT22;11429;50.842;4.386;2022-07-23T02:28:42;18.10;99.90
22526;DHT22;11429;50.842;4.386;2022-07-23T02:31:08;18.10;99.90
22526;DHT22;11429;50.842;4.386;2022-07-23T02:33:34;17.90;99.90
22526;DHT22;11429;50.842;4.386;2022-07-23T02:36:00;17.90;99.90
22526;DHT22;11429;50.842;4.386;2022-07-23T02:38:26;17.80;99.90
22526;DHT22;11429;50.842;4.386;2022-07-23T02:40:52;17.80;99.90
22526;DHT22;11429;50.842;4.386;2022-07-23T02:43:17;17.80;99.90
22526;DHT22;11429;50.842;4.386;2022-07-23T02:45:43;17.80;99.90
22526;DHT22;11429;50.842;4.386;2022-07-23T02:48:09;17.10;99.90
22526;DHT22;11429;50.842;4.386;2022-07-23T02:50:38;16.90;99.90
22526;DHT22;11429;50.842;4.386;2022-07-23T02:53:03;16.70;99.90
22526;DHT22;11429;50.842;4.386;2022-07-23T02:55:29;16.90;99.90
22526;DHT22;11429;50.842;4.386;2022-07-23T02:57:54;16.90;99.90
22526;DHT22;11429;50.842;4.386;2022-07-23T03:00:20;16.70;99.90
22526;DHT22;11429;50.842;4.386;2022-07-23T03:02:46;16.40;99.90
22526;DHT22;11429;50.842;4.386;2022-07-23T03:05:11;16.70;99.90
22526;DHT22;11429;50.842;4.386;2022-07-23T03:07:37;17.00;99.90
22526;DHT22;11429;50.842;4.386;2022-07-23T03:10:03;17.20;99.90
22526;DHT22;11429;50.842;4.386;2022-07-23T03:12:29;17.20;99.90
22526;DHT22;11429;50.842;4.386;2022-07-23T03:14:54;17.40;99.90
22526;DHT22;11429;50.842;4.386;2022-07-23T03:17:20;17.60;99.90
22526;DHT22;11429;50.842;4.386;2022-07-23T03:19:46;17.70;99.90
22526;DHT22;11429;50.842;4.386;2022-07-23T03:22:11;17.70;99.90
22526;DHT22;11429;50.842;4.386;2022-07-23T03:24:37;17.60;99.90
22526;DHT22;11429;50.842;4.386;2022-07-23T03:27:25;17.60;99.90
22526;DHT22;11429;50.842;4.386;2022-07-23T03:29:52;17.50;99.90
22526;DHT22;11429;50.842;4.386;2022-07-23T03:32:18;17.60;99.90
22526;DHT22;11429;50.842;4.386;2022-07-23T03:34:44;17.50;99.90
22526;DHT22;11429;50.842;4.386;2022-07-23T03:37:09;17.30;99.90
22526;DHT22;11429;50.842;4.386;2022-07-23T03:39:35;17.30;99.90
22526;DHT22;11429;50.842;4.386;2022-07-23T03:42:01;17.40;99.90
22526;DHT22;11429;50.842;4.386;2022-07-23T03:44:26;17.50;99.90
22526;DHT22;11429;50.842;4.386;2022-07-23T03:46:52;17.50;99.90
22526;DHT22;11429;50.842;4.386;2022-07-23T03:49:18;17.30;99.90
22526;DHT22;11429;50.842;4.386;2022-07-23T03:51:43;17.30;99.90
22526;DHT22;11429;50.842;4.386;2022-07-23T03:54:09;17.30;99.90
22526;DHT22;11429;50.842;4.386;2022-07-23T03:56:35;17.40;99.90
22526;DHT22;11429;50.842;4.386;2022-07-23T03:59:01;17.60;99.90
22526;DHT22;11429;50.842;4.386;2022-07-23T04:01:27;17.50;99.90
22526;DHT22;11429;50.842;4.386;2022-07-23T04:03:52;17.60;99.90
22526;DHT22;11429;50.842;4.386;2022-07-23T04:06:18;17.60;99.90
22526;DHT22;11429;50.842;4.386;2022-07-23T04:08:44;17.70;99.90
22526;DHT22;11429;50.842;4.386;2022-07-23T04:11:09;17.50;99.90
22526;DHT22;11429;50.842;4.386;2022-07-23T04:13:35;17.60;99.90
22526;DHT22;11429;50.842;4.386;2022-07-23T04:16:01;17.70;99.90
22526;DHT22;11429;50.842;4.386;2022-07-23T04:18:26;17.90;99.90
22526;DHT22;11429;50.842;4.386;2022-07-23T04:20:52;18.00;99.90
22526;DHT22;11429;50.842;4.386;2022-07-23T04:23:18;17.80;99.90
22526;DHT22;11429;50.842;4.386;2022-07-23T04:25:44;17.40;99.90
22526;DHT22;11429;50.842;4.386;2022-07-23T04:28:09;17.30;99.90
22526;DHT22;11429;50.842;4.386;2022-07-23T04:30:35;17.40;99.90
22526;DHT22;11429;50.842;4.386;2022-07-23T04:33:01;17.50;99.90
22526;DHT22;11429;50.842;4.386;2022-07-23T04:35:27;17.90;99.90
22526;DHT22;11429;50.842;4.386;2022-07-23T04:37:52;18.20;99.90
22526;DHT22;11429;50.842;4.386;2022-07-23T04:40:18;18.30;99.90
22526;DHT22;11429;50.842;4.386;2022-07-23T04:42:44;18.20;99.90
22526;DHT22;11429;50.842;4.386;2022-07-23T04:45:10;18.20;99.90
22526;DHT22;11429;50.842;4.386;2022-07-23T04:47:35;18.20;99.90
22526;DHT22;11429;50.842;4.386;2022-07-23T04:50:01;18.20;99.90
22526;DHT22;11429;50.842;4.386;2022-07-23T04:52:27;18.20;99.90
22526;DHT22;11429;50.842;4.386;2022-07-23T04:54:52;18.50;99.90
22526;DHT22;11429;50.842;4.386;2022-07-23T04:57:18;18.60;99.90
22526;DHT22;11429;50.842;4.386;2022-07-23T04:59:43;18.80;99.90
22526;DHT22;11429;50.842;4.386;2022-07-23T05:02:09;18.80;99.90
22526;DHT22;11429;50.842;4.386;2022-07-23T05:04:35;19.10;99.90
22526;DHT22;11429;50.842;4.386;2022-07-23T05:07:00;19.20;99.90
22526;DHT22;11429;50.842;4.386;2022-07-23T05:09:26;19.30;99.90
22526;DHT22;11429;50.842;4.386;2022-07-23T05:11:52;19.50;99.90
22526;DHT22;11429;50.842;4.386;2022-07-23T05:14:17;19.70;99.90
22526;DHT22;11429;50.842;4.386;2022-07-23T05:16:43;20.60;99.90
22526;DHT22;11429;50.842;4.386;2022-07-23T05:19:09;21.70;99.90
22526;DHT22;11429;50.842;4.386;2022-07-23T05:21:35;23.00;99.90
22526;DHT22;11429;50.842;4.386;2022-07-23T05:24:00;23.40;99.90
22526;DHT22;11429;50.842;4.386;2022-07-23T05:26:26;24.40;99.90
22526;DHT22;11429;50.842;4.386;2022-07-23T05:28:52;24.50;99.90
22526;DHT22;11429;50.842;4.386;2022-07-23T05:31:17;24.30;99.90
22526;DHT22;11429;50.842;4.386;2022-07-23T05:33:43;25.00;99.90
22526;DHT22;11429;50.842;4.386;2022-07-23T05:36:09;25.40;99.90
22526;DHT22;11429;50.842;4.386;2022-07-23T05:38:35;25.60;99.90
22526;DHT22;11429;50.842;4.386;2022-07-23T05:41:01;25.10;99.90
22526;DHT22;11429;50.842;4.386;2022-07-23T05:43:27;24.00;99.90
22526;DHT22;11429;50.842;4.386;2022-07-23T05:45:52;23.30;99.90
22526;DHT22;11429;50.842;4.386;2022-07-23T05:48:19;22.80;99.90
22526;DHT22;11429;50.842;4.386;2022-07-23T05:50:45;22.40;99.90
22526;DHT22;11429;50.842;4.386;2022-07-23T05:53:10;20.80;99.90
22526;DHT22;11429;50.842;4.386;2022-07-23T05:55:36;19.60;99.90
22526;DHT22;11429;50.842;4.386;2022-07-23T05:58:02;19.60;99.90
22526;DHT22;11429;50.842;4.386;2022-07-23T06:00:28;20.20;99.90
22526;DHT22;11429;50.842;4.386;2022-07-23T06:02:54;21.50;99.90
22526;DHT22;11429;50.842;4.386;2022-07-23T06:05:20;23.60;99.90
22526;DHT22;11429;50.842;4.386;2022-07-23T06:07:45;24.70;99.90
22526;DHT22;11429;50.842;4.386;2022-07-23T06:10:11;26.30;99.90
22526;DHT22;11429;50.842;4.386;2022-07-23T06:12:38;26.40;99.90
22526;DHT22;11429;50.842;4.386;2022-07-23T06:15:04;26.10;99.90
22526;DHT22;11429;50.842;4.386;2022-07-23T06:17:30;27.10;99.90
22526;DHT22;11429;50.842;4.386;2022-07-23T06:19:55;27.90;99.90
22526;DHT22;11429;50.842;4.386;2022-07-23T06:22:21;28.60;99.90
22526;DHT22;11429;50.842;4.386;2022-07-23T06:24:48;29.40;99.90
22526;DHT22;11429;50.842;4.386;2022-07-23T06:27:14;30.10;99.90
22526;DHT22;11429;50.842;4.386;2022-07-23T06:29:40;30.60;99.90
22526;DHT22;11429;50.842;4.386;2022-07-23T06:32:07;31.30;99.90
22526;DHT22;11429;50.842;4.386;2022-07-23T06:34:33;32.30;99.90
22526;DHT22;11429;50.842;4.386;2022-07-23T06:36:59;32.30;99.90
22526;DHT22;11429;50.842;4.386;2022-07-23T06:39:24;32.40;99.90
22526;DHT22;11429;50.842;4.386;2022-07-23T06:41:50;32.70;99.90
22526;DHT22;11429;50.842;4.386;2022-07-23T06:44:16;30.50;99.90
22526;DHT22;11429;50.842;4.386;2022-07-23T06:46:41;29.10;99.90
22526;DHT22;11429;50.842;4.386;2022-07-23T06:49:07;28.60;99.90
22526;DHT22;11429;50.842;4.386;2022-07-23T06:51:33;29.20;99.90
22526;DHT22;11429;50.842;4.386;2022-07-23T06:53:59;29.70;99.90
22526;DHT22;11429;50.842;4.386;2022-07-23T06:56:24;31.00;99.90
22526;DHT22;11429;50.842;4.386;2022-07-23T06:58:50;31.70;99.90
22526;DHT22;11429;50.842;4.386;2022-07-23T07:01:16;32.20;99.80
22526;DHT22;11429;50.842;4.386;2022-07-23T07:03:42;32.60;98.90
22526;DHT22;11429;50.842;4.386;2022-07-23T07:06:07;33.20;98.40
22526;DHT22;11429;50.842;4.386;2022-07-23T07:08:33;33.50;97.80
22526;DHT22;11429;50.842;4.386;2022-07-23T07:10:59;33.70;96.90
22526;DHT22;11429;50.842;4.386;2022-07-23T07:13:24;34.60;95.60
22526;DHT22;11429;50.842;4.386;2022-07-23T07:15:50;34.80;95.10
22526;DHT22;11429;50.842;4.386;2022-07-23T07:18:16;35.50;94.40
22526;DHT22;11429;50.842;4.386;2022-07-23T07:20:42;35.10;93.70
22526;DHT22;11429;50.842;4.386;2022-07-23T07:23:07;33.60;95.30
22526;DHT22;11429;50.842;4.386;2022-07-23T07:25:33;34.70;93.90
22526;DHT22;11429;50.842;4.386;2022-07-23T07:27:59;35.40;92.80
22526;DHT22;11429;50.842;4.386;2022-07-23T07:30:24;35.80;91.90
22526;DHT22;11429;50.842;4.386;2022-07-23T07:32:50;36.00;91.40
22526;DHT22;11429;50.842;4.386;2022-07-23T07:35:16;36.40;90.60
22526;DHT22;11429;50.842;4.386;2022-07-23T07:37:41;35.90;90.90
22526;DHT22;11429;50.842;4.386;2022-07-23T07:40:08;35.70;90.60
22526;DHT22;11429;50.842;4.386;2022-07-23T07:42:34;36.90;89.40
22526;DHT22;11429;50.842;4.386;2022-07-23T07:44:59;36.80;88.10
22526;DHT22;11429;50.842;4.386;2022-07-23T07:47:25;36.00;89.00
22526;DHT22;11429;50.842;4.386;2022-07-23T07:49:51;36.70;88.10
22526;DHT22;11429;50.842;4.386;2022-07-23T07:52:17;37.20;86.20
22526;DHT22;11429;50.842;4.386;2022-07-23T07:54:42;37.90;83.30
22526;DHT22;11429;50.842;4.386;2022-07-23T07:57:09;35.90;86.00
22526;DHT22;11429;50.842;4.386;2022-07-23T07:59:34;36.30;86.20
22526;DHT22;11429;50.842;4.386;2022-07-23T08:02:00;37.30;83.40
22526;DHT22;11429;50.842;4.386;2022-07-23T08:04:26;37.30;82.60
22526;DHT22;11429;50.842;4.386;2022-07-23T08:06:51;36.70;83.60
22526;DHT22;11429;50.842;4.386;2022-07-23T08:09:17;36.50;84.40
22526;DHT22;11429;50.842;4.386;2022-07-23T08:11:43;36.50;83.50
22526;DHT22;11429;50.842;4.386;2022-07-23T08:14:08;36.90;83.20
22526;DHT22;11429;50.842;4.386;2022-07-23T08:16:36;36.90;83.30
22526;DHT22;11429;50.842;4.386;2022-07-23T08:19:02;36.50;83.10
22526;DHT22;11429;50.842;4.386;2022-07-23T08:21:27;35.40;84.80
22526;DHT22;11429;50.842;4.386;2022-07-23T08:23:53;33.40;89.50
22526;DHT22;11429;50.842;4.386;2022-07-23T08:26:19;32.80;90.20
22526;DHT22;11429;50.842;4.386;2022-07-23T08:28:44;32.90;90.70
22526;DHT22;11429;50.842;4.386;2022-07-23T08:31:10;32.30;91.20
22526;DHT22;11429;50.842;4.386;2022-07-23T08:33:37;31.10;92.30
22526;DHT22;11429;50.842;4.386;2022-07-23T08:36:03;30.50;93.20
22526;DHT22;11429;50.842;4.386;2022-07-23T08:38:29;30.50;92.80
22526;DHT22;11429;50.842;4.386;2022-07-23T08:40:56;29.50;94.20
22526;DHT22;11429;50.842;4.386;2022-07-23T08:43:29;28.90;95.10
22526;DHT22;11429;50.842;4.386;2022-07-23T08:45:57;27.20;97.60
22526;DHT22;11429;50.842;4.386;2022-07-23T08:48:26;26.40;99.70
22526;DHT22;11429;50.842;4.386;2022-07-23T08:50:54;26.60;99.70
22526;DHT22;11429;50.842;4.386;2022-07-23T08:53:21;26.60;99.90
22526;DHT22;11429;50.842;4.386;2022-07-23T08:55:50;28.70;98.00
22526;DHT22;11429;50.842;4.386;2022-07-23T08:58:16;31.40;94.40
22526;DHT22;11429;50.842;4.386;2022-07-23T09:00:43;33.00;92.20
22526;DHT22;11429;50.842;4.386;2022-07-23T09:03:21;34.20;91.50
22526;DHT22;11429;50.842;4.386;2022-07-23T09:05:47;32.70;91.70
22526;DHT22;11429;50.842;4.386;2022-07-23T09:08:38;32.70;92.30
22526;DHT22;11429;50.842;4.386;2022-07-23T09:11:06;34.90;90.00
22526;DHT22;11429;50.842;4.386;2022-07-23T09:13:39;33.00;91.20
22526;DHT22;11429;50.842;4.386;2022-07-23T09:18:59;34.30;88.70
22526;DHT22;11429;50.842;4.386;2022-07-23T09:21:27;34.80;87.30
22526;DHT22;11429;50.842;4.386;2022-07-23T09:29:24;36.00;82.10
22526;DHT22;11429;50.842;4.386;2022-07-23T09:32:01;36.80;80.10
22526;DHT22;11429;50.842;4.386;2022-07-23T09:34:35;34.60;80.50
22526;DHT22;11429;50.842;4.386;2022-07-23T09:37:15;32.80;86.60
22526;DHT22;11429;50.842;4.386;2022-07-23T09:39:43;32.60;88.30
22526;DHT22;11429;50.842;4.386;2022-07-23T09:42:15;33.60;86.20
22526;DHT22;11429;50.842;4.386;2022-07-23T09:44:45;34.90;84.50
22526;DHT22;11429;50.842;4.386;2022-07-23T09:47:11;35.30;83.70
22526;DHT22;11429;50.842;4.386;2022-07-23T09:49:37;36.30;81.60
22526;DHT22;11429;50.842;4.386;2022-07-23T09:52:03;36.80;80.90
22526;DHT22;11429;50.842;4.386;2022-07-23T09:54:32;36.80;80.10
22526;DHT22;11429;50.842;4.386;2022-07-23T09:57:10;37.20;78.50
22526;DHT22;11429;50.842;4.386;2022-07-23T09:59:41;37.10;78.30
22526;DHT22;11429;50.842;4.386;2022-07-23T10:02:08;36.90;78.00
22526;DHT22;11429;50.842;4.386;2022-07-23T10:04:34;36.30;79.90
22526;DHT22;11429;50.842;4.386;2022-07-23T10:07:03;35.70;80.90
22526;DHT22;11429;50.842;4.386;2022-07-23T10:09:34;34.80;81.20
22526;DHT22;11429;50.842;4.386;2022-07-23T10:12:03;35.80;80.50
22526;DHT22;11429;50.842;4.386;2022-07-23T10:14:32;35.70;80.70
22526;DHT22;11429;50.842;4.386;2022-07-23T10:17:02;36.30;78.90
22526;DHT22;11429;50.842;4.386;2022-07-23T10:19:28;35.40;80.70
22526;DHT22;11429;50.842;4.386;2022-07-23T10:22:00;35.90;79.30
22526;DHT22;11429;50.842;4.386;2022-07-23T10:29:59;36.60;77.40
22526;DHT22;11429;50.842;4.386;2022-07-23T10:37:39;37.10;78.80
22526;DHT22;11429;50.842;4.386;2022-07-23T10:40:18;37.00;78.00
22526;DHT22;11429;50.842;4.386;2022-07-23T10:42:46;37.30;76.00
22526;DHT22;11429;50.842;4.386;2022-07-23T10:45:34;36.80;77.00
22526;DHT22;11429;50.842;4.386;2022-07-23T10:51:05;36.10;77.50
22526;DHT22;11429;50.842;4.386;2022-07-23T10:54:01;35.40;79.20
22526;DHT22;11429;50.842;4.386;2022-07-23T10:56:49;36.30;77.30
22526;DHT22;11429;50.842;4.386;2022-07-23T10:59:15;35.40;78.30
22526;DHT22;11429;50.842;4.386;2022-07-23T11:01:40;35.30;78.90
22526;DHT22;11429;50.842;4.386;2022-07-23T11:04:06;35.90;77.40
22526;DHT22;11429;50.842;4.386;2022-07-23T11:09:38;34.90;79.20
22526;DHT22;11429;50.842;4.386;2022-07-23T11:15:10;35.20;78.80
22526;DHT22;11429;50.842;4.386;2022-07-23T11:20:23;34.60;80.40
22526;DHT22;11429;50.842;4.386;2022-07-23T11:22:55;32.60;82.60
22526;DHT22;11429;50.842;4.386;2022-07-23T11:27:49;31.50;86.80
22526;DHT22;11429;50.842;4.386;2022-07-23T11:35:35;31.50;86.30
22526;DHT22;11429;50.842;4.386;2022-07-23T11:40:40;30.80;87.20
22526;DHT22;11429;50.842;4.386;2022-07-23T11:43:07;29.80;90.00
22526;DHT22;11429;50.842;4.386;2022-07-23T11:45:50;30.50;88.70
22526;DHT22;11429;50.842;4.386;2022-07-23T11:48:24;31.00;87.10
22526;DHT22;11429;50.842;4.386;2022-07-23T11:50:51;31.90;86.50
22526;DHT22;11429;50.842;4.386;2022-07-23T11:53:28;32.50;84.40
22526;DHT22;11429;50.842;4.386;2022-07-23T11:56:06;30.90;86.70
22526;DHT22;11429;50.842;4.386;2022-07-23T11:58:32;30.90;87.90
22526;DHT22;11429;50.842;4.386;2022-07-23T12:00:58;31.50;87.10
22526;DHT22;11429;50.842;4.386;2022-07-23T12:03:23;31.70;86.60
22526;DHT22;11429;50.842;4.386;2022-07-23T12:05:49;30.10;88.60
22526;DHT22;11429;50.842;4.386;2022-07-23T12:08:21;30.00;90.20
22526;DHT22;11429;50.842;4.386;2022-07-23T12:10:46;30.50;89.00
22526;DHT22;11429;50.842;4.386;2022-07-23T12:13:15;31.10;87.30
22526;DHT22;11429;50.842;4.386;2022-07-23T12:15:50;31.90;85.30
22526;DHT22;11429;50.842;4.386;2022-07-23T12:18:19;31.60;86.00
22526;DHT22;11429;50.842;4.386;2022-07-23T12:20:48;31.50;86.60
22526;DHT22;11429;50.842;4.386;2022-07-23T12:23:16;29.90;89.50
22526;DHT22;11429;50.842;4.386;2022-07-23T12:25:43;29.50;90.40
22526;DHT22;11429;50.842;4.386;2022-07-23T12:28:30;29.60;90.30
22526;DHT22;11429;50.842;4.386;2022-07-23T12:30:58;29.70;90.60
22526;DHT22;11429;50.842;4.386;2022-07-23T12:33:26;30.30;90.30
22526;DHT22;11429;50.842;4.386;2022-07-23T12:35:55;30.60;89.30
22526;DHT22;11429;50.842;4.386;2022-07-23T12:38:23;30.80;88.50
22526;DHT22;11429;50.842;4.386;2022-07-23T12:40:51;31.30;87.40
22526;DHT22;11429;50.842;4.386;2022-07-23T12:51:16;30.40;88.40
22526;DHT22;11429;50.842;4.386;2022-07-23T12:53:50;29.80;89.40
22526;DHT22;11429;50.842;4.386;2022-07-23T12:56:19;29.00;91.00
22526;DHT22;11429;50.842;4.386;2022-07-23T12:59:17;28.40;92.30
22526;DHT22;11429;50.842;4.386;2022-07-23T13:01:44;28.60;92.30
22526;DHT22;11429;50.842;4.386;2022-07-23T13:04:17;29.00;92.20
22526;DHT22;11429;50.842;4.386;2022-07-23T13:06:53;28.60;91.70
22526;DHT22;11429;50.842;4.386;2022-07-23T13:09:25;28.40;92.00
22526;DHT22;11429;50.842;4.386;2022-07-23T13:11:51;28.80;91.80
22526;DHT22;11429;50.842;4.386;2022-07-23T13:14:19;28.40;92.30
22526;DHT22;11429;50.842;4.386;2022-07-23T13:16:46;28.40;92.40
22526;DHT22;11429;50.842;4.386;2022-07-23T13:19:12;28.30;92.70
22526;DHT22;11429;50.842;4.386;2022-07-23T13:21:39;29.10;92.30
22526;DHT22;11429;50.842;4.386;2022-07-23T13:24:05;29.50;91.50
22526;DHT22;11429;50.842;4.386;2022-07-23T13:26:31;29.40;91.90
22526;DHT22;11429;50.842;4.386;2022-07-23T13:28:57;29.10;92.10
22526;DHT22;11429;50.842;4.386;2022-07-23T13:31:23;29.10;91.60
22526;DHT22;11429;50.842;4.386;2022-07-23T13:33:49;28.60;92.00
22526;DHT22;11429;50.842;4.386;2022-07-23T13:36:15;28.60;92.40
22526;DHT22;11429;50.842;4.386;2022-07-23T13:38:41;29.30;91.30
22526;DHT22;11429;50.842;4.386;2022-07-23T13:41:06;29.40;90.90
22526;DHT22;11429;50.842;4.386;2022-07-23T13:43:32;28.90;91.50
22526;DHT22;11429;50.842;4.386;2022-07-23T13:45:58;28.50;92.10
22526;DHT22;11429;50.842;4.386;2022-07-23T13:48:24;28.50;92.40
22526;DHT22;11429;50.842;4.386;2022-07-23T13:50:51;28.60;92.40
22526;DHT22;11429;50.842;4.386;2022-07-23T13:53:19;28.80;91.90
22526;DHT22;11429;50.842;4.386;2022-07-23T13:55:47;28.60;92.50
22526;DHT22;11429;50.842;4.386;2022-07-23T13:58:13;28.30;92.80
22526;DHT22;11429;50.842;4.386;2022-07-23T14:00:42;28.50;92.70
22526;DHT22;11429;50.842;4.386;2022-07-23T14:03:08;28.60;92.70
22526;DHT22;11429;50.842;4.386;2022-07-23T14:05:34;28.40;92.80
22526;DHT22;11429;50.842;4.386;2022-07-23T14:08:00;28.30;92.60
22526;DHT22;11429;50.842;4.386;2022-07-23T14:10:25;28.50;92.40
22526;DHT22;11429;50.842;4.386;2022-07-23T14:12:52;29.20;91.30
22526;DHT22;11429;50.842;4.386;2022-07-23T14:15:23;29.90;90.80
22526;DHT22;11429;50.842;4.386;2022-07-23T14:17:50;30.20;90.70
22526;DHT22;11429;50.842;4.386;2022-07-23T14:20:16;29.70;91.60
22526;DHT22;11429;50.842;4.386;2022-07-23T14:22:42;29.30;92.40
22526;DHT22;11429;50.842;4.386;2022-07-23T14:25:09;28.40;93.30
22526;DHT22;11429;50.842;4.386;2022-07-23T14:27:35;28.30;93.70
22526;DHT22;11429;50.842;4.386;2022-07-23T14:30:04;29.00;92.50
22526;DHT22;11429;50.842;4.386;2022-07-23T14:32:29;29.70;91.60
22526;DHT22;11429;50.842;4.386;2022-07-23T14:34:55;29.60;92.30
22526;DHT22;11429;50.842;4.386;2022-07-23T14:37:21;29.60;92.00
22526;DHT22;11429;50.842;4.386;2022-07-23T14:39:47;29.90;91.70
22526;DHT22;11429;50.842;4.386;2022-07-23T14:42:14;29.90;91.60
22526;DHT22;11429;50.842;4.386;2022-07-23T14:44:40;29.80;91.50
22526;DHT22;11429;50.842;4.386;2022-07-23T14:47:07;29.70;91.10
22526;DHT22;11429;50.842;4.386;2022-07-23T14:49:33;29.20;91.50
22526;DHT22;11429;50.842;4.386;2022-07-23T14:52:00;29.10;92.10
22526;DHT22;11429;50.842;4.386;2022-07-23T14:54:27;28.70;92.30
22526;DHT22;11429;50.842;4.386;2022-07-23T14:56:54;28.40;92.90
22526;DHT22;11429;50.842;4.386;2022-07-23T14:59:20;29.00;92.00
22526;DHT22;11429;50.842;4.386;2022-07-23T15:01:45;29.10;91.80
22526;DHT22;11429;50.842;4.386;2022-07-23T15:04:11;29.50;92.10
22526;DHT22;11429;50.842;4.386;2022-07-23T15:06:37;29.50;91.90
22526;DHT22;11429;50.842;4.386;2022-07-23T15:09:05;29.40;92.20
22526;DHT22;11429;50.842;4.386;2022-07-23T15:11:31;29.80;91.10
22526;DHT22;11429;50.842;4.386;2022-07-23T15:14:00;29.60;91.30
22526;DHT22;11429;50.842;4.386;2022-07-23T15:16:26;29.10;92.30
22526;DHT22;11429;50.842;4.386;2022-07-23T15:18:52;28.40;93.00
22526;DHT22;11429;50.842;4.386;2022-07-23T15:21:18;28.40;93.40
22526;DHT22;11429;50.842;4.386;2022-07-23T15:23:44;28.30;93.60
22526;DHT22;11429;50.842;4.386;2022-07-23T15:26:10;28.70;93.00
22526;DHT22;11429;50.842;4.386;2022-07-23T15:28:36;29.10;92.70
22526;DHT22;11429;50.842;4.386;2022-07-23T15:31:02;29.10;93.10
22526;DHT22;11429;50.842;4.386;2022-07-23T15:33:28;28.90;93.30
22526;DHT22;11429;50.842;4.386;2022-07-23T15:35:54;29.10;93.00
22526;DHT22;11429;50.842;4.386;2022-07-23T15:38:24;29.10;92.90
22526;DHT22;11429;50.842;4.386;2022-07-23T15:40:50;29.20;92.30
22526;DHT22;11429;50.842;4.386;2022-07-23T15:43:16;29.20;91.90
22526;DHT22;11429;50.842;4.386;2022-07-23T15:45:41;29.10;92.10
22526;DHT22;11429;50.842;4.386;2022-07-23T15:48:07;29.20;91.90
22526;DHT22;11429;50.842;4.386;2022-07-23T15:50:33;29.30;91.70
22526;DHT22;11429;50.842;4.386;2022-07-23T15:52:59;29.10;92.00
22526;DHT22;11429;50.842;4.386;2022-07-23T15:55:24;29.50;92.30
22526;DHT22;11429;50.842;4.386;2022-07-23T15:57:51;29.40;92.60
22526;DHT22;11429;50.842;4.386;2022-07-23T16:00:17;29.10;92.90
22526;DHT22;11429;50.842;4.386;2022-07-23T16:02:42;28.40;94.20
22526;DHT22;11429;50.842;4.386;2022-07-23T16:05:08;28.70;94.20
22526;DHT22;11429;50.842;4.386;2022-07-23T16:07:53;28.80;93.60
22526;DHT22;11429;50.842;4.386;2022-07-23T16:10:18;28.70;93.70
22526;DHT22;11429;50.842;4.386;2022-07-23T16:12:46;28.70;93.30
22526;DHT22;11429;50.842;4.386;2022-07-23T16:15:11;28.40;93.60
22526;DHT22;11429;50.842;4.386;2022-07-23T16:17:37;28.60;93.40
22526;DHT22;11429;50.842;4.386;2022-07-23T16:20:04;29.00;93.00